Time;durP1;ratioP1;P1;durP2;ratioP2;P2;SDS_P1;SDS_P2;PMS_P1;PMS_P2;Temp;Humidity;BMP_temperature;BMP_pressure;BME280_temperature;BME280_humidity;BME280_pressure;Samples;Min_cycle;Max_cycle;Signal;HPM_P1;HPM_P2
2022/01/26 00:00:06;;;;;;;16.60;6.30;;;;;;;2.70;90.07;102450.81;107789;1281;61609;-73
2022/01/26 00:08:05;;;;;;;;;;;;;;;2.57;91.35;102445.36;107897;1280;72647;-73
2022/01/26 00:10:33;;;;;;;13.60;5.90;;;;;;;2.53;91.88;102443.49;107880;1281;74061;-74
2022/01/26 00:13:00;;;;;;;14.70;7.10;;;;;;;2.50;92.04;102441.38;107851;1281;62173;-75
2022/01/26 00:15:29;;;;;;;15.60;6.30;;;;;;;2.50;92.11;102439.98;107919;1280;59099;-73
2022/01/26 00:17:57;;;;;;;16.40;5.90;;;;;;;2.50;92.70;102439.30;107820;1281;76024;-74
2022/01/26 00:20:35;;;;;;;13.30;5.40;;;;;;;2.51;92.66;102441.14;107783;1281;71510;-73
2022/01/26 00:23:32;;;;;;;14.80;6.50;;;;;;;2.51;92.73;102442.35;107873;1281;73512;-75
2022/01/26 00:26:05;;;;;;;13.10;5.00;;;;;;;2.52;92.80;102449.27;107923;1281;61427;-74
2022/01/26 00:28:45;;;;;;;17.30;6.80;;;;;;;2.53;92.78;102450.13;107901;1280;63371;-74
2022/01/26 00:31:59;;;;;;;13.50;4.70;;;;;;;2.52;92.38;102451.05;107898;1280;76099;-74
2022/01/26 00:39:30;;;;;;;19.30;6.30;;;;;;;2.51;92.03;102445.88;107906;1280;62553;-74
2022/01/26 00:41:58;;;;;;;11.80;5.50;;;;;;;2.51;91.79;102444.98;107893;1281;59162;-75
2022/01/26 00:44:37;;;;;;;11.50;4.90;;;;;;;2.51;91.53;102435.01;107906;1280;76106;-73
2022/01/26 00:47:05;;;;;;;11.80;4.70;;;;;;;2.51;91.50;102434.66;107894;1281;71505;-72
2022/01/26 00:49:31;;;;;;;15.00;6.40;;;;;;;2.51;91.24;102436.77;107901;1281;73146;-74
2022/01/26 00:51:58;;;;;;;12.70;5.00;;;;;;;2.52;91.20;102431.83;107887;1280;59795;-73
2022/01/26 00:54:27;;;;;;;9.40;3.60;;;;;;;2.52;90.95;102426.23;107927;1280;62875;-73
2022/01/26 00:56:53;;;;;;;11.30;4.30;;;;;;;2.51;90.62;102419.30;107689;1281;74974;-75
2022/01/26 00:59:20;;;;;;;10.10;4.70;;;;;;;2.50;90.93;102414.64;107888;1281;59115;-74
2022/01/26 01:01:47;;;;;;;13.60;5.30;;;;;;;2.49;90.79;102420.64;107820;1280;72925;-73
2022/01/26 01:04:14;;;;;;;14.80;5.00;;;;;;;2.49;90.88;102419.08;107864;1279;61202;-75
2022/01/26 01:06:49;;;;;;;13.20;5.60;;;;;;;2.49;91.11;102419.22;107843;1281;59537;-73
2022/01/26 01:09:17;;;;;;;15.30;6.40;;;;;;;2.51;91.33;102416.52;107747;1281;74916;-72
2022/01/26 01:11:44;;;;;;;13.50;5.70;;;;;;;2.52;91.54;102418.20;107852;1280;71443;-75
2022/01/26 01:14:11;;;;;;;18.70;6.60;;;;;;;2.52;91.83;102417.54;107885;1281;73987;-72
2022/01/26 01:16:38;;;;;;;14.00;5.10;;;;;;;2.51;91.77;102416.71;107870;1279;59863;-74
2022/01/26 01:29:34;;;;;;;16.30;6.80;;;;;;;2.45;91.15;102407.52;107835;1281;60875;-73
2022/01/26 01:32:10;;;;;;;16.40;5.70;;;;;;;2.46;91.32;102411.17;107832;1279;59545;-72
2022/01/26 01:34:38;;;;;;;15.70;6.50;;;;;;;2.45;91.54;102415.06;107641;1281;75112;-73
2022/01/26 01:37:08;;;;;;;16.70;6.90;;;;;;;2.44;91.68;102416.67;107867;1279;70332;-74
2022/01/26 01:39:37;;;;;;;12.80;6.00;;;;;;;2.42;91.83;102417.99;107812;1278;73131;-74
2022/01/26 01:42:06;;;;;;;14.40;5.50;;;;;;;2.43;91.95;102414.44;107792;1281;61663;-73
2022/01/26 01:44:33;;;;;;;17.20;6.60;;;;;;;2.44;92.18;102415.30;107672;1281;59288;-75
2022/01/26 01:47:00;;;;;;;16.80;6.60;;;;;;;2.45;92.37;102410.16;107867;1281;76016;-74
2022/01/26 01:49:27;;;;;;;16.90;4.10;;;;;;;2.45;92.54;102407.57;107714;1280;71565;-73
2022/01/26 01:52:01;;;;;;;14.30;6.50;;;;;;;2.43;92.57;102403.66;107848;1279;71993;-73
2022/01/26 01:54:28;;;;;;;13.80;6.30;;;;;;;2.42;92.71;102395.14;107857;1281;59872;-73
2022/01/26 01:56:57;;;;;;;14.40;6.50;;;;;;;2.41;92.78;102395.02;107880;1279;60576;-74
2022/01/26 01:59:28;;;;;;;8.70;3.80;;;;;;;2.40;92.82;102396.64;107812;1281;76038;-75
2022/01/26 02:01:56;;;;;;;12.60;5.50;;;;;;;2.37;92.73;102391.71;107860;1280;72510;-74
2022/01/26 02:04:23;;;;;;;13.40;5.20;;;;;;;2.36;92.56;102384.79;107885;1279;72230;-73
2022/01/26 02:06:49;;;;;;;15.80;6.10;;;;;;;2.34;92.75;102386.31;107788;1281;62295;-75
2022/01/26 02:09:16;;;;;;;15.10;6.70;;;;;;;2.33;93.12;102391.06;107750;1281;60783;-75
2022/01/26 02:11:51;;;;;;;21.60;7.10;;;;;;;2.32;93.17;102386.07;107839;1280;76155;-73
2022/01/26 02:14:24;;;;;;;16.50;7.50;;;;;;;2.32;93.33;102381.17;107862;1279;71413;-75
2022/01/26 02:17:03;;;;;;;15.20;6.10;;;;;;;2.31;93.72;102382.79;107800;1281;73196;-75
2022/01/26 02:58:11;;;;;;;15.40;5.50;;;;;;;2.10;94.90;102333.10;107877;1281;73089;-73
2022/01/26 03:03:27;;;;;;;15.50;6.40;;;;;;;2.03;95.04;102328.03;107862;1280;61366;-72
2022/01/26 03:06:08;;;;;;;15.60;6.60;;;;;;;2.03;95.27;102329.23;107763;1281;76089;-73
2022/01/26 03:08:40;;;;;;;18.00;7.30;;;;;;;2.01;95.19;102333.02;107870;1281;72779;-74
2022/01/26 03:11:10;;;;;;;12.60;6.10;;;;;;;1.99;95.48;102328.08;107833;1279;73818;-74
2022/01/26 03:13:41;;;;;;;9.20;3.10;;;;;;;1.99;95.33;102313.56;107803;1281;60395;-74
2022/01/26 03:16:16;;;;;;;16.80;6.10;;;;;;;2.00;95.56;102311.09;107878;1279;60615;-72
2022/01/26 03:21:25;;;;;;;19.10;6.20;;;;;;;2.02;95.33;102302.42;107707;1281;71128;-75
2022/01/26 03:29:56;;;;;;;14.80;7.00;;;;;;;1.96;95.88;102309.05;107668;1281;60707;-74
2022/01/26 03:34:35;;;;;;;15.70;5.30;;;;;;;1.94;95.92;102318.92;107814;1281;72565;-74
2022/01/26 03:37:07;;;;;;;14.40;6.30;;;;;;;1.92;96.08;102317.45;107874;1281;59036;-73
2022/01/26 03:39:42;;;;;;;16.60;7.30;;;;;;;1.89;96.36;102318.64;107746;1281;61537;-74
2022/01/26 03:42:14;;;;;;;19.70;6.80;;;;;;;1.89;96.50;102312.55;107834;1279;61579;-73
2022/01/26 03:44:42;;;;;;;14.00;5.10;;;;;;;1.87;96.67;102307.73;107911;1279;74127;-73
2022/01/26 03:47:09;;;;;;;14.20;5.90;;;;;;;1.85;96.68;102309.41;107660;1281;71544;-73
2022/01/26 03:49:37;;;;;;;14.10;5.20;;;;;;;1.84;96.70;102305.83;107894;1281;74043;-73
2022/01/26 03:52:05;;;;;;;16.40;6.10;;;;;;;1.82;96.81;102309.23;107757;1281;62468;-73
2022/01/26 03:54:34;;;;;;;17.70;5.70;;;;;;;1.81;96.90;102317.31;107913;1280;61819;-75
2022/01/26 03:57:01;;;;;;;13.00;6.60;;;;;;;1.79;97.01;102318.92;107930;1280;75231;-73
2022/01/26 03:59:27;;;;;;;13.80;6.30;;;;;;;1.77;97.18;102322.89;107756;1281;70860;-73
2022/01/26 04:01:54;;;;;;;14.30;5.90;;;;;;;1.76;97.17;102326.27;107875;1280;72945;-74
2022/01/26 04:04:21;;;;;;;16.10;6.80;;;;;;;1.73;97.59;102325.02;107711;1281;61408;-71
2022/01/26 04:06:47;;;;;;;14.90;6.00;;;;;;;1.72;97.58;102327.00;107927;1280;60498;-74
2022/01/26 04:09:16;;;;;;;16.60;6.40;;;;;;;1.71;97.76;102327.38;107913;1279;75118;-73
2022/01/26 04:11:46;;;;;;;15.80;5.30;;;;;;;1.71;97.69;102336.65;107909;1281;72536;-75
2022/01/26 04:14:19;;;;;;;15.60;6.40;;;;;;;1.70;97.95;102335.48;107922;1279;72086;-73
2022/01/26 04:16:47;;;;;;;16.60;5.50;;;;;;;1.69;97.91;102339.71;107686;1280;61493;-73
2022/01/26 04:19:13;;;;;;;24.50;7.50;;;;;;;1.69;97.97;102338.35;107926;1279;60639;-75
2022/01/26 04:24:32;;;;;;;15.70;6.20;;;;;;;1.67;97.80;102344.89;107905;1279;71411;-73
2022/01/26 04:27:04;;;;;;;14.80;6.20;;;;;;;1.67;97.87;102339.84;107915;1279;71909;-73
2022/01/26 04:29:33;;;;;;;14.60;6.40;;;;;;;1.65;97.75;102335.73;107774;1281;61434;-75
2022/01/26 04:32:03;;;;;;;18.10;6.40;;;;;;;1.63;97.86;102329.52;107957;1279;60793;-75
2022/01/26 04:34:29;;;;;;;18.60;5.80;;;;;;;1.64;97.92;102314.49;107973;1280;73942;-73
2022/01/26 04:37:03;;;;;;;14.10;5.90;;;;;;;1.63;98.09;102310.35;107923;1279;72355;-73
2022/01/26 04:39:36;;;;;;;15.20;6.00;;;;;;;1.61;98.18;102312.70;107912;1279;73131;-75
2022/01/26 04:42:09;;;;;;;18.20;7.20;;;;;;;1.60;97.99;102314.66;107943;1279;62508;-74
2022/01/26 04:44:43;;;;;;;15.30;6.80;;;;;;;1.59;98.02;102311.23;107969;1280;61914;-74
2022/01/26 04:47:09;;;;;;;15.20;6.00;;;;;;;1.58;98.30;102306.41;107993;1281;76011;-75
2022/01/26 04:49:36;;;;;;;19.50;7.50;;;;;;;1.59;98.30;102309.52;107994;1280;59127;-73
2022/01/26 04:52:03;;;;;;;16.70;6.60;;;;;;;1.59;98.12;102304.98;107956;1279;74152;-74
2022/01/26 04:54:30;;;;;;;17.10;5.60;;;;;;;1.59;97.88;102300.08;107809;1281;61487;-74
2022/01/26 04:56:56;;;;;;;18.00;6.60;;;;;;;1.58;97.89;102298.21;107921;1279;60371;-75
2022/01/26 04:59:23;;;;;;;14.30;5.70;;;;;;;1.58;97.89;102298.04;107981;1280;74946;-74
2022/01/26 05:01:49;;;;;;;19.70;6.80;;;;;;;1.57;98.00;102303.50;107930;1280;59090;-73
2022/01/26 05:04:16;;;;;;;23.00;7.00;;;;;;;1.57;97.86;102312.40;107593;1281;73015;-75
2022/01/26 05:06:43;;;;;;;16.00;6.00;;;;;;;1.57;98.07;102327.75;107974;1279;59076;-75
2022/01/26 05:09:09;;;;;;;21.10;7.20;;;;;;;1.57;97.92;102333.67;107828;1280;61541;-74
2022/01/26 05:11:40;;;;;;;16.00;6.00;;;;;;;1.57;98.15;102329.31;107963;1281;74932;-73
2022/01/26 05:14:07;;;;;;;18.30;7.60;;;;;;;1.59;98.03;102317.37;107994;1279;71433;-75
2022/01/26 05:16:33;;;;;;;17.20;6.10;;;;;;;1.60;98.12;102309.48;107945;1280;72978;-73
2022/01/26 05:19:00;;;;;;;14.60;6.00;;;;;;;1.61;97.64;102316.56;107949;1279;60565;-74
2022/01/26 05:21:28;;;;;;;16.10;6.30;;;;;;;1.62;97.64;102321.90;107976;1281;60598;-75
2022/01/26 05:23:55;;;;;;;13.70;5.20;;;;;;;1.62;97.31;102320.66;107978;1280;74967;-73
2022/01/26 05:26:21;;;;;;;13.30;4.80;;;;;;;1.62;96.75;102312.64;107885;1279;72410;-75
2022/01/26 05:28:48;;;;;;;16.30;6.00;;;;;;;1.60;96.36;102310.68;107734;1279;72991;-76
2022/01/26 05:31:15;;;;;;;13.60;6.20;;;;;;;1.59;95.92;102306.55;107924;1279;61417;-75
2022/01/26 05:33:42;;;;;;;15.70;5.10;;;;;;;1.58;96.01;102306.24;107541;1281;60641;-73
2022/01/26 05:36:09;;;;;;;14.30;4.80;;;;;;;1.55;95.30;102303.42;107828;1281;75114;-73
2022/01/26 05:38:35;;;;;;;18.60;6.60;;;;;;;1.52;94.42;102297.81;107996;1279;70771;-73
2022/01/26 05:41:04;;;;;;;12.80;4.60;;;;;;;1.53;94.81;102295.69;107926;1279;73217;-73
2022/01/26 05:43:34;;;;;;;18.60;6.40;;;;;;;1.52;94.68;102287.71;107968;1280;61536;-74
2022/01/26 05:46:10;;;;;;;18.70;6.80;;;;;;;1.51;94.80;102279.22;107821;1280;60406;-74
2022/01/26 05:48:43;;;;;;;12.60;4.40;;;;;;;1.51;95.09;102288.12;107853;1281;75108;-75
2022/01/26 05:51:11;;;;;;;17.30;7.00;;;;;;;1.50;95.16;102288.67;107917;1279;71394;-74
2022/01/26 05:53:39;;;;;;;17.80;8.10;;;;;;;1.49;95.14;102281.06;107785;1281;73174;-75
2022/01/26 05:56:07;;;;;;;19.80;7.30;;;;;;;1.47;94.55;102278.73;107970;1280;61570;-73
2022/01/26 05:58:34;;;;;;;19.20;6.70;;;;;;;1.47;94.52;102283.11;107993;1279;59617;-74
2022/01/26 06:01:02;;;;;;;27.60;10.20;;;;;;;1.45;94.65;102282.33;107852;1280;74901;-74
2022/01/26 06:03:29;;;;;;;27.20;10.40;;;;;;;1.45;94.98;102272.77;107963;1279;71552;-75
2022/01/26 06:05:57;;;;;;;22.30;7.40;;;;;;;1.45;95.27;102267.69;107973;1279;74010;-75
2022/01/26 06:08:24;;;;;;;30.80;11.00;;;;;;;1.45;95.14;102269.44;107963;1279;61302;-73
2022/01/26 06:10:52;;;;;;;34.10;13.10;;;;;;;1.44;95.13;102267.18;107958;1279;60815;-74
2022/01/26 06:13:18;;;;;;;32.10;11.60;;;;;;;1.45;95.39;102269.43;107776;1280;73667;-74
2022/01/26 06:15:45;;;;;;;32.30;11.50;;;;;;;1.43;94.84;102264.10;107982;1279;59203;-74
2022/01/26 06:18:12;;;;;;;32.00;10.70;;;;;;;1.42;94.88;102262.05;107944;1279;74171;-75
2022/01/26 06:20:40;;;;;;;30.30;10.10;;;;;;;1.43;95.13;102258.89;107871;1279;62218;-75
2022/01/26 06:23:06;;;;;;;33.30;11.60;;;;;;;1.43;95.42;102263.08;107897;1279;60705;-73
2022/01/26 06:25:33;;;;;;;34.50;11.30;;;;;;;1.45;95.36;102265.42;107898;1279;75940;-75
2022/01/26 06:28:05;;;;;;;42.90;14.90;;;;;;;1.46;95.29;102267.83;107771;1280;71540;-73
2022/01/26 06:30:32;;;;;;;35.20;12.70;;;;;;;1.46;95.57;102259.58;107948;1279;73156;-74
2022/01/26 06:32:59;;;;;;;37.80;12.50;;;;;;;1.46;95.37;102252.43;107992;1279;59080;-73
2022/01/26 06:35:26;;;;;;;38.80;14.70;;;;;;;1.46;95.43;102255.41;107707;1281;60766;-74
2022/01/26 06:37:53;;;;;;;44.90;14.70;;;;;;;1.46;95.54;102257.86;108024;1279;75085;-74
2022/01/26 06:40:21;;;;;;;30.90;12.00;;;;;;;1.45;95.60;102273.96;107864;1281;72582;-74
2022/01/26 06:42:58;;;;;;;32.70;12.60;;;;;;;1.43;95.09;102287.13;107956;1279;73053;-73
2022/01/26 06:45:28;;;;;;;30.10;10.00;;;;;;;1.39;94.17;102282.41;107997;1279;61675;-74
2022/01/26 06:50:40;;;;;;;36.00;12.10;;;;;;;1.29;94.16;102284.16;107989;1280;74660;-72
2022/01/26 06:53:07;;;;;;;29.00;10.10;;;;;;;1.25;93.65;102285.04;107962;1279;71418;-73
2022/01/26 06:55:36;;;;;;;28.00;10.20;;;;;;;1.19;93.76;102287.23;107961;1279;74201;-73
2022/01/26 06:58:03;;;;;;;39.30;13.40;;;;;;;1.15;94.16;102289.02;107994;1279;62525;-74
2022/01/26 07:00:30;;;;;;;31.70;11.60;;;;;;;1.13;94.43;102278.86;107986;1279;61747;-72
2022/01/26 07:02:57;;;;;;;48.70;14.90;;;;;;;1.12;94.71;102278.54;107952;1279;74911;-73
2022/01/26 07:05:24;;;;;;;42.70;13.30;;;;;;;1.09;94.61;102294.70;107944;1279;72894;-74
2022/01/26 07:07:51;;;;;;;31.60;11.70;;;;;;;1.08;95.04;102304.18;107953;1279;73939;-73
2022/01/26 07:10:18;;;;;;;34.70;11.20;;;;;;;1.05;94.93;102303.78;107986;1280;61403;-73
2022/01/26 07:12:44;;;;;;;46.00;15.10;;;;;;;1.03;94.82;102308.43;107996;1279;60656;-75
2022/01/26 07:23:35;;;;;;;37.30;13.50;;;;;;;0.96;94.41;102263.27;107841;1281;61197;-73
2022/01/26 07:26:02;;;;;;;50.30;16.40;;;;;;;0.95;94.39;102241.19;107898;1279;59428;-73
2022/01/26 07:28:34;;;;;;;48.30;15.10;;;;;;;0.94;94.49;102240.20;107669;1281;290032;-75
2022/01/26 07:31:07;;;;;;;58.20;18.20;;;;;;;0.94;94.56;102255.20;107966;1279;71421;-73
2022/01/26 07:33:34;;;;;;;52.10;16.70;;;;;;;0.95;94.55;102258.26;107895;1280;72949;-72
2022/01/26 07:36:01;;;;;;;34.20;9.60;;;;;;;0.97;94.85;102253.83;107845;1281;61193;-73
2022/01/26 07:38:27;;;;;;;52.10;15.20;;;;;;;0.97;95.00;102252.61;108003;1280;59003;-75
2022/01/26 07:40:54;;;;;;;41.30;14.60;;;;;;;0.96;94.97;102262.23;107986;1279;75221;-72
2022/01/26 07:43:22;;;;;;;47.30;14.90;;;;;;;0.96;94.98;102266.78;107832;1280;71599;-74
2022/01/26 07:45:48;;;;;;;39.70;14.80;;;;;;;0.93;94.62;102264.45;107955;1279;73877;-75
2022/01/26 07:48:14;;;;;;;61.20;17.30;;;;;;;0.94;95.00;102263.74;107976;1279;59089;-75
2022/01/26 07:50:41;;;;;;;42.90;13.50;;;;;;;0.95;95.14;102259.48;108003;1279;59178;-74
2022/01/26 07:53:14;;;;;;;50.30;16.40;;;;;;;0.95;95.37;102260.37;107843;1281;59237;-73
2022/01/26 07:55:41;;;;;;;41.70;13.30;;;;;;;0.95;95.61;102262.30;108004;1279;70457;-73
2022/01/26 07:58:09;;;;;;;58.90;13.90;;;;;;;0.96;95.62;102264.30;107615;1279;73615;-74
2022/01/26 08:00:37;;;;;;;51.20;15.50;;;;;;;0.94;95.68;102270.52;107968;1279;59738;-73
2022/01/26 08:03:04;;;;;;;48.10;16.50;;;;;;;0.92;95.63;102265.56;108008;1279;59550;-75
2022/01/26 08:05:31;;;;;;;56.80;17.00;;;;;;;0.90;95.69;102263.24;108039;1279;76370;-73
2022/01/26 08:07:57;;;;;;;52.00;17.00;;;;;;;0.89;95.70;102266.05;107874;1281;59249;-73
2022/01/26 08:10:24;;;;;;;45.00;14.30;;;;;;;0.90;95.58;102263.41;107995;1279;59394;-73
2022/01/26 08:12:50;;;;;;;40.50;13.20;;;;;;;0.90;95.47;102264.27;108013;1279;59153;-76
2022/01/26 08:15:23;;;;;;;53.20;14.30;;;;;;;0.91;95.22;102268.60;107950;1279;60665;-76
2022/01/26 08:17:50;;;;;;;49.20;15.20;;;;;;;0.94;95.47;102269.27;107993;1279;76051;-75
2022/01/26 08:20:16;;;;;;;42.40;12.50;;;;;;;0.96;95.53;102267.80;107741;1281;59043;-76
2022/01/26 08:22:46;;;;;;;50.80;15.70;;;;;;;0.98;95.70;102268.77;107960;1279;74054;-77
2022/01/26 08:25:12;;;;;;;59.80;17.10;;;;;;;1.01;95.88;102272.10;107816;1280;61291;-77
2022/01/26 08:27:43;;;;;;;59.90;17.50;;;;;;;1.05;95.95;102274.69;107962;1280;61085;-77
2022/01/26 08:30:15;;;;;;;62.50;19.20;;;;;;;1.08;95.90;102269.30;108005;1279;76208;-76
2022/01/26 08:32:41;;;;;;;62.70;16.80;;;;;;;1.10;95.72;102268.52;108003;1279;72334;-77
2022/01/26 08:35:09;;;;;;;42.50;14.20;;;;;;;1.11;95.79;102279.08;107852;1280;74028;-76
2022/01/26 08:37:35;;;;;;;41.30;12.80;;;;;;;1.13;95.65;102272.71;107993;1280;61574;-76
2022/01/26 08:40:03;;;;;;;46.20;14.60;;;;;;;1.16;95.97;102268.40;107968;1281;59108;-77
2022/01/26 08:42:33;;;;;;;59.90;17.00;;;;;;;1.16;95.97;102277.98;107997;1279;76429;-75
2022/01/26 08:44:59;;;;;;;50.30;18.90;;;;;;;1.15;95.81;102281.52;107912;1280;70347;-77
2022/01/26 08:47:26;;;;;;;56.60;15.70;;;;;;;1.14;95.84;102282.96;107956;1280;74007;-76
2022/01/26 08:49:52;;;;;;;50.40;14.50;;;;;;;1.13;95.91;102280.23;107968;1280;59130;-76
2022/01/26 08:52:19;;;;;;;48.30;17.50;;;;;;;1.11;95.71;102284.49;107976;1279;58451;-76
2022/01/26 08:54:46;;;;;;;51.80;17.10;;;;;;;1.11;95.42;102284.51;107962;1280;74967;-76
2022/01/26 08:57:15;;;;;;;48.50;15.70;;;;;;;1.12;95.70;102293.69;107943;1281;71463;-77
2022/01/26 08:59:41;;;;;;;50.90;18.40;;;;;;;1.10;95.24;102293.61;107974;1280;59155;-76
2022/01/26 09:02:08;;;;;;;58.00;19.30;;;;;;;1.09;95.01;102294.70;107986;1280;59462;-77
2022/01/26 09:04:35;;;;;;;68.00;20.00;;;;;;;1.09;94.67;102298.35;107884;1279;59228;-76
2022/01/26 09:07:04;;;;;;;50.00;17.50;;;;;;;1.10;94.37;102293.45;107989;1279;75990;-78
2022/01/26 09:09:41;;;;;;;40.20;12.30;;;;;;;1.07;93.75;102296.89;107959;1280;71094;-76
2022/01/26 09:12:10;;;;;;;73.70;22.60;;;;;;;1.05;93.44;102291.44;107964;1280;71988;-76
2022/01/26 09:14:37;;;;;;;58.40;18.20;;;;;;;1.02;93.37;102284.25;107953;1281;59655;-77
2022/01/26 09:17:05;;;;;;;67.60;21.00;;;;;;;0.99;93.59;102294.12;107978;1279;60523;-75
2022/01/26 09:19:32;;;;;;;79.30;24.90;;;;;;;0.97;93.80;102292.31;107820;1280;75014;-77
2022/01/26 09:22:06;;;;;;;86.60;26.00;;;;;;;0.97;94.01;102300.86;107996;1279;73871;-75
2022/01/26 09:24:41;;;;;;;75.20;24.70;;;;;;;0.98;93.98;102300.96;107989;1280;73118;-75
2022/01/26 09:27:10;;;;;;;70.40;23.90;;;;;;;0.99;93.97;102303.35;107812;1281;61640;-75
2022/01/26 09:29:36;;;;;;;87.30;27.10;;;;;;;0.99;93.73;102307.55;107844;1279;61634;-75
2022/01/26 09:32:04;;;;;;;77.60;25.10;;;;;;;1.00;93.72;102301.76;107902;1281;76076;-77
2022/01/26 09:34:35;;;;;;;85.60;29.40;;;;;;;1.02;94.27;102307.08;107961;1280;71398;-77
2022/01/26 09:37:03;;;;;;;51.30;17.90;;;;;;;1.04;93.99;102310.98;107980;1280;73718;-76
2022/01/26 09:39:32;;;;;;;70.30;21.10;;;;;;;1.01;93.89;102311.62;107758;1281;63457;-76
2022/01/26 09:42:00;;;;;;;65.00;19.70;;;;;;;1.00;94.07;102307.54;107971;1279;59850;-77
2022/01/26 09:44:30;;;;;;;70.20;21.70;;;;;;;1.00;94.36;102301.79;107948;1279;75970;-77
2022/01/26 09:46:58;;;;;;;69.90;20.40;;;;;;;0.98;94.12;102310.75;107857;1281;71266;-77
2022/01/26 09:49:33;;;;;;;63.60;20.10;;;;;;;0.94;94.16;102313.37;107950;1280;72930;-78
2022/01/26 09:52:07;;;;;;;59.30;17.80;;;;;;;0.92;93.92;102317.83;107870;1281;61424;-77
2022/01/26 09:54:35;;;;;;;61.20;22.00;;;;;;;0.91;94.05;102317.53;107811;1280;59612;-78
2022/01/26 09:57:21;;;;;;;53.00;18.10;;;;;;;0.89;94.32;102320.75;107959;1280;78158;-75
2022/01/26 09:59:48;;;;;;;57.20;16.80;;;;;;;0.89;94.58;102320.95;107976;1279;71430;-76
2022/01/26 10:02:26;;;;;;;57.00;15.10;;;;;;;0.88;94.86;102322.39;107859;1279;74388;-76
2022/01/26 10:04:56;;;;;;;74.30;21.00;;;;;;;0.87;95.13;102319.45;107903;1279;61544;-76
2022/01/26 10:07:40;;;;;;;68.20;20.80;;;;;;;0.85;95.21;102324.41;107932;1279;60141;-76
2022/01/26 10:15:33;;;;;;;39.50;10.60;;;;;;;0.76;95.43;102334.94;107954;1279;73806;-76
2022/01/26 10:18:06;;;;;;;47.10;15.10;;;;;;;0.72;95.33;102339.45;107965;1279;61137;-76
2022/01/26 10:20:52;;;;;;;43.20;14.60;;;;;;;0.69;94.92;102336.29;107835;1279;61812;-77
2022/01/26 10:23:24;;;;;;;51.80;16.40;;;;;;;0.69;94.96;102338.59;107966;1278;76345;-76
2022/01/26 10:26:04;;;;;;;51.60;15.60;;;;;;;0.67;94.95;102334.12;107947;1279;72518;-77
2022/01/26 10:28:56;;;;;;;36.90;13.90;;;;;;;0.71;94.63;102333.09;107969;1279;71414;-76
2022/01/26 10:31:37;;;;;;;49.60;16.60;;;;;;;0.75;94.42;102323.50;107929;1280;61513;-76
2022/01/26 10:34:24;;;;;;;65.70;20.10;;;;;;;0.82;94.52;102309.92;107879;1279;61019;-76
2022/01/26 10:36:57;;;;;;;62.60;22.10;;;;;;;0.86;93.96;102305.73;107915;1279;76209;-76
2022/01/26 10:39:30;;;;;;;69.80;20.70;;;;;;;0.91;93.87;102308.80;107936;1279;71099;-77
2022/01/26 10:42:03;;;;;;;62.90;18.40;;;;;;;0.96;93.86;102313.29;107797;1279;73055;-77
2022/01/26 10:44:33;;;;;;;59.90;19.10;;;;;;;1.05;93.65;102316.33;107955;1279;61430;-78
2022/01/26 10:47:03;;;;;;;55.80;14.60;;;;;;;1.10;93.09;102320.62;107794;1281;61949;-76
2022/01/26 10:50:07;;;;;;;39.70;11.80;;;;;;;1.14;92.96;102323.08;107952;1279;73738;-77
2022/01/26 10:52:35;;;;;;;67.20;20.80;;;;;;;1.17;92.79;102326.04;107861;1279;72554;-77
2022/01/26 10:55:08;;;;;;;72.60;21.00;;;;;;;1.16;92.45;102327.81;107784;1280;73022;-77
2022/01/26 10:57:36;;;;;;;61.80;18.50;;;;;;;1.19;92.33;102312.16;107950;1279;59619;-76
2022/01/26 11:00:05;;;;;;;65.00;18.40;;;;;;;1.26;92.59;102308.37;107731;1281;60646;-76
2022/01/26 11:02:33;;;;;;;59.70;18.70;;;;;;;1.35;92.55;102305.97;107882;1279;76262;-75
2022/01/26 11:05:00;;;;;;;68.70;21.90;;;;;;;1.41;91.84;102308.67;107844;1279;71429;-77
2022/01/26 11:07:34;;;;;;;43.70;15.20;;;;;;;1.44;91.40;102301.55;107893;1280;73005;-76
2022/01/26 11:10:05;;;;;;;69.00;21.60;;;;;;;1.45;91.41;102297.16;107924;1279;62458;-77
2022/01/26 11:12:32;;;;;;;63.10;18.80;;;;;;;1.45;91.51;102281.96;107730;1281;60218;-76
2022/01/26 11:15:22;;;;;;;71.20;20.70;;;;;;;1.47;91.54;102278.41;107931;1280;76135;-77
2022/01/26 11:17:51;;;;;;;69.70;20.40;;;;;;;1.48;91.43;102283.19;107815;1279;71425;-77
2022/01/26 11:20:18;;;;;;;56.90;18.90;;;;;;;1.48;91.25;102284.98;107919;1279;74093;-77
2022/01/26 11:22:57;;;;;;;63.10;20.30;;;;;;;1.44;90.73;102282.73;107935;1279;62576;-76
2022/01/26 11:25:27;;;;;;;71.80;22.00;;;;;;;1.41;90.61;102277.61;107803;1280;60927;-77
2022/01/26 11:27:55;;;;;;;63.60;19.60;;;;;;;1.38;90.67;102273.42;107919;1281;75140;-77
2022/01/26 11:30:31;;;;;;;54.30;17.90;;;;;;;1.35;90.81;102278.09;107903;1279;71390;-77
2022/01/26 11:33:20;;;;;;;59.80;17.40;;;;;;;1.32;90.65;102281.38;107913;1281;73113;-77
2022/01/26 11:35:50;;;;;;;58.70;20.90;;;;;;;1.30;90.71;102281.70;107886;1279;61164;-75
2022/01/26 11:47:15;;;;;;;65.70;20.60;;;;;;;1.31;90.72;102278.85;107907;1281;72896;-77
2022/01/26 11:49:46;;;;;;;65.10;18.40;;;;;;;1.34;91.01;102281.64;107780;1281;62949;-76
2022/01/26 11:52:40;;;;;;;44.30;15.80;;;;;;;1.37;91.38;102272.44;107929;1279;60705;-76
2022/01/26 11:55:30;;;;;;;66.80;23.80;;;;;;;1.39;91.51;102264.80;107854;1279;74931;-76
2022/01/26 11:58:19;;;;;;;60.00;17.40;;;;;;;1.43;91.47;102261.15;107905;1280;72570;-76
2022/01/26 12:01:06;;;;;;;81.60;21.70;;;;;;;1.47;91.50;102253.82;107886;1281;74441;-76
2022/01/26 12:03:35;;;;;;;72.90;23.00;;;;;;;1.49;90.96;102249.00;107915;1279;62507;-76
2022/01/26 12:06:04;;;;;;;73.10;22.40;;;;;;;1.50;90.86;102239.16;107916;1280;60408;-76
2022/01/26 12:08:34;;;;;;;46.00;14.90;;;;;;;1.54;90.90;102228.18;107800;1280;76373;-74
2022/01/26 12:11:03;;;;;;;64.10;18.90;;;;;;;1.56;90.60;102222.45;107735;1281;73086;-76
2022/01/26 12:13:32;;;;;;;54.80;18.30;;;;;;;1.59;90.43;102221.63;107914;1280;73059;-75
2022/01/26 12:16:07;;;;;;;63.40;21.20;;;;;;;1.62;90.32;102214.31;107907;1281;61416;-75
2022/01/26 12:18:42;;;;;;;69.40;22.10;;;;;;;1.64;90.44;102210.02;107836;1279;60905;-77
2022/01/26 12:38:19;;;;;;;56.80;18.90;;;;;;;1.77;89.74;102184.60;107935;1280;72383;-76
2022/01/26 12:43:45;;;;;;;75.20;22.30;;;;;;;1.78;89.82;102195.72;107905;1279;60258;-76
2022/01/26 12:46:17;;;;;;;66.60;21.80;;;;;;;1.78;89.96;102194.46;107890;1280;59783;-75
2022/01/26 12:48:52;;;;;;;70.90;22.00;;;;;;;1.77;89.77;102183.87;107903;1280;75708;-77
2022/01/26 12:51:20;;;;;;;66.40;20.80;;;;;;;1.78;89.73;102177.58;107896;1279;71422;-78
2022/01/26 12:53:55;;;;;;;64.50;21.50;;;;;;;1.78;89.80;102173.91;107806;1281;72912;-75
2022/01/26 12:56:25;;;;;;;56.30;20.30;;;;;;;1.80;90.11;102169.44;107899;1280;62826;-77
2022/01/26 12:59:07;;;;;;;71.20;21.60;;;;;;;1.82;90.15;102155.04;107867;1280;60958;-76
2022/01/26 13:01:34;;;;;;;62.40;21.00;;;;;;;1.84;90.15;102154.40;107883;1280;75797;-76
2022/01/26 13:04:03;;;;;;;57.10;19.40;;;;;;;1.84;90.14;102149.52;107825;1279;71406;-76
2022/01/26 13:06:40;;;;;;;78.10;23.80;;;;;;;1.85;90.50;102148.09;107742;1281;73072;-76
2022/01/26 13:09:27;;;;;;;73.50;21.20;;;;;;;1.87;90.62;102150.23;107858;1281;61498;-75
2022/01/26 13:11:56;;;;;;;68.70;21.70;;;;;;;1.90;90.68;102157.23;107696;1281;62037;-75
2022/01/26 13:14:28;;;;;;;73.10;22.70;;;;;;;1.91;90.93;102150.70;107919;1280;75034;-76
2022/01/26 13:17:05;;;;;;;76.80;24.70;;;;;;;1.92;90.57;102157.79;107926;1279;70593;-75
2022/01/26 13:19:41;;;;;;;68.00;20.10;;;;;;;1.94;90.77;102150.90;107767;1281;74585;-76
2022/01/26 13:22:34;;;;;;;78.60;24.80;;;;;;;1.95;90.85;102145.05;107935;1281;60882;-75
2022/01/26 13:25:19;;;;;;;66.00;20.40;;;;;;;1.97;90.87;102149.65;107937;1280;59110;-75
2022/01/26 13:30:37;;;;;;;54.20;18.30;;;;;;;2.01;90.93;102138.10;107943;1279;72491;-77